createdAt,value
2017-10-11T00:00:39.698Z,74061.02
2017-10-11T00:01:39.722Z,74057.68
2017-10-11T00:02:39.744Z,74061.04
2017-10-11T00:03:39.766Z,74042.09
2017-10-11T00:04:39.789Z,74054.02
2017-10-11T00:05:39.812Z,74055.21
2017-10-11T00:06:39.836Z,74053.66
2017-10-11T00:07:39.857Z,74056.34
2017-10-11T00:08:39.880Z,74057.56
2017-10-11T00:09:39.902Z,74063.46
2017-10-11T00:10:39.925Z,74050.80
2017-10-11T00:11:39.945Z,74058.63
2017-10-11T00:12:39.970Z,74055.74
2017-10-11T00:13:40.006Z,74053.95
2017-10-11T00:14:40.016Z,74059.84
2017-10-11T00:15:40.037Z,74060.62
2017-10-11T00:16:40.061Z,74060.95
2017-10-11T00:17:40.083Z,74057.48
2017-10-11T00:18:40.105Z,74060.52
2017-10-11T00:19:40.128Z,74054.38
2017-10-11T00:20:40.150Z,74059.19
2017-10-11T00:21:40.172Z,74056.01
2017-10-11T00:22:40.195Z,74059.21
2017-10-11T00:23:40.218Z,74063.27
2017-10-11T00:24:40.240Z,74058.55
2017-10-11T00:25:40.266Z,74057.76
2017-10-11T00:26:40.286Z,74055.66
2017-10-11T00:27:40.308Z,74059.24
2017-10-11T00:28:40.331Z,74058.24
2017-10-11T00:29:40.354Z,74061.44
2017-10-11T00:30:40.377Z,74047.45
2017-10-11T00:31:40.398Z,74053.27
2017-10-11T00:32:40.421Z,74054.02
2017-10-11T00:33:40.443Z,74057.47
2017-10-11T00:34:40.466Z,74054.06
2017-10-11T00:35:40.506Z,74054.41
2017-10-11T00:36:40.532Z,74059.28
2017-10-11T00:37:40.534Z,74062.69
2017-10-11T00:38:40.556Z,74058.65
2017-10-11T00:39:40.579Z,74065.10
2017-10-11T00:40:40.600Z,74060.90
2017-10-11T00:41:40.623Z,74061.88
2017-10-11T00:42:40.646Z,74063.57
2017-10-11T00:43:40.668Z,74059.40
2017-10-11T00:44:40.691Z,74061.07
2017-10-11T00:45:40.714Z,74063.38
2017-10-11T00:46:40.737Z,74062.04
2017-10-11T00:47:40.759Z,74063.92
2017-10-11T00:48:40.781Z,74065.05
2017-10-11T00:49:40.804Z,74064.22
2017-10-11T00:50:40.829Z,74060.63
2017-10-11T00:51:40.849Z,74062.60
2017-10-11T00:52:40.871Z,74061.99
2017-10-11T00:53:40.894Z,74065.05
2017-10-11T00:54:40.918Z,74067.70
2017-10-11T00:55:40.939Z,74058.60
2017-10-11T00:56:40.961Z,74058.24
2017-10-11T00:57:40.984Z,74055.60
2017-10-11T00:58:41.008Z,74057.52
2017-10-11T00:59:41.031Z,74058.00
2017-10-11T01:00:41.056Z,74062.13
2017-10-11T01:01:41.075Z,74064.23
2017-10-11T01:02:41.098Z,74062.42
2017-10-11T01:03:41.119Z,74061.45
2017-10-11T01:04:41.142Z,74064.81
2017-10-11T01:05:41.166Z,74062.96
2017-10-11T01:06:41.188Z,74060.80
2017-10-11T01:07:41.209Z,74064.74
2017-10-11T01:08:41.232Z,74060.32
2017-10-11T01:09:41.256Z,74052.55
2017-10-11T01:10:41.276Z,74059.62
2017-10-11T01:11:41.299Z,74052.41
2017-10-11T01:12:41.322Z,74061.32
2017-10-11T01:13:41.345Z,74055.19
2017-10-11T01:14:41.367Z,74055.22
2017-10-11T01:15:41.389Z,74039.68
2017-10-11T01:16:41.413Z,74053.43
2017-10-11T01:17:41.434Z,74054.72
2017-10-11T01:18:41.459Z,74052.91
2017-10-11T01:19:41.479Z,74056.14
2017-10-11T01:20:41.502Z,74046.74
2017-10-11T01:21:41.525Z,74056.53
2017-10-11T01:22:41.548Z,74056.24
2017-10-11T01:23:41.570Z,74060.65
2017-10-11T01:24:41.592Z,74059.60
2017-10-11T01:25:41.614Z,74057.63
2017-10-11T01:26:41.637Z,74064.53
2017-10-11T01:27:41.660Z,74059.44
2017-10-11T01:28:41.687Z,74059.96
2017-10-11T01:29:41.705Z,74054.16
2017-10-11T01:30:41.732Z,74053.09
2017-10-11T01:31:41.750Z,74050.26
2017-10-11T01:32:41.772Z,74054.13
2017-10-11T01:33:41.795Z,74056.00
2017-10-11T01:34:41.819Z,74056.90
2017-10-11T01:35:41.838Z,74051.99
2017-10-11T01:36:41.863Z,74057.26
2017-10-11T01:37:41.884Z,74054.64
2017-10-11T01:38:41.907Z,74056.99
2017-10-11T01:39:41.950Z,74058.61
2017-10-11T01:40:41.953Z,74054.41
2017-10-11T01:41:41.979Z,74050.63
2017-10-11T01:42:41.998Z,74056.32
2017-10-11T01:43:42.020Z,74045.27
2017-10-11T01:44:42.042Z,74055.14
2017-10-11T01:45:42.065Z,74057.37
2017-10-11T01:46:42.088Z,74051.27
2017-10-11T01:47:42.110Z,74054.38
2017-10-11T01:48:42.133Z,74051.30
2017-10-11T01:49:42.156Z,74052.88
2017-10-11T01:50:42.178Z,74052.59
2017-10-11T01:51:42.201Z,74050.52
2017-10-11T01:52:42.223Z,74049.26
2017-10-11T01:53:42.246Z,74050.07
2017-10-11T01:54:42.268Z,74052.22
2017-10-11T01:55:42.290Z,74051.50
2017-10-11T01:56:42.318Z,74050.56
2017-10-11T01:57:42.336Z,74053.20
2017-10-11T01:58:42.358Z,74056.22
2017-10-11T01:59:42.384Z,74049.59
2017-10-11T02:00:42.403Z,74052.77
2017-10-11T02:01:42.425Z,74057.83
2017-10-11T02:02:42.449Z,74052.60
2017-10-11T02:03:42.471Z,74057.29
2017-10-11T02:04:42.494Z,74054.67
2017-10-11T02:05:42.516Z,74065.87
2017-10-11T02:06:42.540Z,74053.95
2017-10-11T02:07:42.560Z,74057.34
2017-10-11T02:08:42.584Z,74057.63
2017-10-11T02:09:42.606Z,74060.37
2017-10-11T02:10:42.630Z,74058.69
2017-10-11T02:11:42.652Z,74069.99
2017-10-11T02:12:42.673Z,74067.41
2017-10-11T02:13:42.696Z,74063.66
2017-10-11T02:14:42.720Z,74062.64
2017-10-11T02:15:42.740Z,74066.38
2017-10-11T02:16:42.765Z,74062.59
2017-10-11T02:17:42.787Z,74062.83
2017-10-11T02:18:42.809Z,74061.86
2017-10-11T02:19:42.831Z,74068.77
2017-10-11T02:20:42.854Z,74067.59
2017-10-11T02:21:42.878Z,74060.08
2017-10-11T02:22:42.901Z,74057.40
2017-10-11T02:23:42.921Z,74061.29
2017-10-11T02:24:42.944Z,74054.75
2017-10-11T02:25:42.968Z,74061.52
2017-10-11T02:26:42.989Z,74054.66
2017-10-11T02:27:43.011Z,74064.30
2017-10-11T02:28:43.035Z,74060.94
2017-10-11T02:29:43.058Z,74053.24
2017-10-11T02:30:43.080Z,74060.71
2017-10-11T02:31:43.104Z,74062.40
2017-10-11T02:32:43.127Z,74050.97
2017-10-11T02:33:43.151Z,74063.35
2017-10-11T02:34:43.170Z,74063.41
2017-10-11T02:35:43.192Z,74058.86
2017-10-11T02:36:43.214Z,74062.03
2017-10-11T02:37:43.237Z,74068.03
2017-10-11T02:38:43.261Z,74060.44
2017-10-11T02:39:43.285Z,74063.09
2017-10-11T02:40:43.304Z,74054.58
2017-10-11T02:41:43.327Z,74056.48
2017-10-11T02:42:43.351Z,74058.62
2017-10-11T02:43:43.373Z,74051.50
2017-10-11T02:44:43.396Z,74057.44
2017-10-11T02:45:43.418Z,74055.07
2017-10-11T02:46:43.440Z,74051.59
2017-10-11T02:47:43.462Z,74051.06
2017-10-11T02:48:43.484Z,74045.43
2017-10-11T02:49:43.508Z,74051.34
2017-10-11T02:50:43.531Z,74049.53
2017-10-11T02:51:43.554Z,74048.76
2017-10-11T02:52:43.576Z,74045.88
2017-10-11T02:53:43.598Z,74048.85
2017-10-11T02:54:43.621Z,74051.88
2017-10-11T02:55:43.643Z,74054.66
2017-10-11T02:56:43.667Z,74057.05
2017-10-11T02:57:43.688Z,74051.06
2017-10-11T02:58:43.712Z,74052.39
2017-10-11T02:59:43.732Z,74054.82
2017-10-11T03:00:43.758Z,74052.39
2017-10-11T03:01:43.779Z,74043.28
2017-10-11T03:02:43.802Z,74052.52
2017-10-11T03:03:43.824Z,74049.85
2017-10-11T03:04:43.846Z,74048.23
2017-10-11T03:05:43.869Z,74050.43
2017-10-11T03:06:43.891Z,74049.36
2017-10-11T03:07:43.913Z,74042.01
2017-10-11T03:08:43.937Z,74036.80
2017-10-11T03:09:43.958Z,74055.91
2017-10-11T03:10:43.982Z,74041.70
2017-10-11T03:11:44.005Z,74046.02
2017-10-11T03:12:44.031Z,74049.49
2017-10-11T03:13:44.049Z,74033.02
2017-10-11T03:14:44.071Z,74044.73
2017-10-11T03:15:44.094Z,74041.51
2017-10-11T03:16:44.123Z,74031.21
2017-10-11T03:17:44.139Z,74046.83
2017-10-11T03:18:44.162Z,74046.55
2017-10-11T03:19:44.184Z,74044.18
2017-10-11T03:20:44.206Z,74045.27
2017-10-11T03:21:44.229Z,74042.05
2017-10-11T03:22:44.253Z,74052.29
2017-10-11T03:23:44.274Z,74046.82
2017-10-11T03:24:44.297Z,74046.34
2017-10-11T03:25:44.320Z,74041.72
2017-10-11T03:26:44.342Z,74044.33
2017-10-11T03:27:44.364Z,74039.69
2017-10-11T03:28:44.387Z,74042.76
2017-10-11T03:29:44.410Z,74035.70
2017-10-11T03:30:44.434Z,74031.34
2017-10-11T03:31:44.464Z,74031.50
2017-10-11T03:32:44.478Z,74033.24
2017-10-11T03:33:44.501Z,74029.02
2017-10-11T03:34:44.523Z,74038.90
2017-10-11T03:35:44.554Z,74034.83
2017-10-11T03:36:44.567Z,74040.60
2017-10-11T03:37:44.591Z,74031.20
2017-10-11T03:38:44.613Z,74040.47
2017-10-11T03:39:44.636Z,74036.52
2017-10-11T03:40:44.658Z,74049.97
2017-10-11T03:41:44.681Z,74025.99
2017-10-11T03:42:44.704Z,74027.84
2017-10-11T03:43:44.726Z,74031.66
2017-10-11T03:44:44.748Z,74036.51
2017-10-11T03:45:44.772Z,74033.57
2017-10-11T03:46:44.799Z,74026.14
2017-10-11T03:47:44.817Z,74036.58
2017-10-11T03:48:44.840Z,74036.58
2017-10-11T03:49:44.863Z,74041.96
2017-10-11T03:50:44.885Z,74036.97
2017-10-11T03:51:44.907Z,74033.95
2017-10-11T03:52:44.931Z,74033.67
2017-10-11T03:53:44.952Z,74034.91
2017-10-11T03:54:44.976Z,74038.84
2017-10-11T03:55:44.998Z,74038.29
2017-10-11T03:56:45.021Z,74025.91
2017-10-11T03:57:45.043Z,74028.46
2017-10-11T03:58:45.066Z,74031.98
2017-10-11T03:59:45.088Z,74029.10
2017-10-11T04:00:45.113Z,74029.73
2017-10-11T04:01:45.134Z,74027.83
2017-10-11T04:02:45.157Z,74029.70
2017-10-11T04:03:45.179Z,74019.23
2017-10-11T04:04:45.202Z,74014.35
2017-10-11T04:05:45.225Z,74036.48
2017-10-11T04:06:45.252Z,74038.98
2017-10-11T04:07:45.270Z,74032.27
2017-10-11T04:08:45.293Z,74026.34
2017-10-11T04:09:45.322Z,74024.17
2017-10-11T04:10:45.339Z,74033.23
2017-10-11T04:11:45.361Z,74029.56
2017-10-11T04:12:45.383Z,74033.82
2017-10-11T04:13:45.407Z,74028.20
2017-10-11T04:14:45.430Z,74026.92
2017-10-11T04:15:45.452Z,74023.21
2017-10-11T04:16:45.475Z,74030.18
2017-10-11T04:17:45.498Z,74039.23
2017-10-11T04:18:45.522Z,74028.92
2017-10-11T04:19:45.543Z,74030.95
2017-10-11T04:20:45.566Z,74032.80
2017-10-11T04:21:45.588Z,74036.02
2017-10-11T04:22:45.611Z,74036.14
2017-10-11T04:23:45.633Z,74034.34
2017-10-11T04:24:45.656Z,74021.87
2017-10-11T04:25:45.679Z,74031.23
2017-10-11T04:26:45.703Z,74034.59
2017-10-11T04:27:45.725Z,74034.47
2017-10-11T04:28:45.747Z,74018.67
2017-10-11T04:29:45.770Z,74033.15
2017-10-11T04:30:45.794Z,74024.48
2017-10-11T04:31:45.815Z,74042.04
2017-10-11T04:32:45.839Z,74039.40
2017-10-11T04:33:45.861Z,74032.22
2017-10-11T04:34:45.885Z,74020.98
2017-10-11T04:35:45.906Z,74026.44
2017-10-11T04:36:45.930Z,74027.88
2017-10-11T04:37:45.958Z,74026.38
2017-10-11T04:38:45.975Z,74037.75
2017-10-11T04:39:45.998Z,74037.44
2017-10-11T04:40:46.020Z,74031.20
2017-10-11T04:41:46.044Z,74035.20
2017-10-11T04:42:46.070Z,74037.23
2017-10-11T04:43:46.088Z,74035.48
2017-10-11T04:44:46.111Z,74032.41
2017-10-11T04:45:46.133Z,74023.08
2017-10-11T04:46:46.158Z,74028.34
2017-10-11T04:47:46.179Z,74030.29
2017-10-11T04:48:46.202Z,74033.17
2017-10-11T04:49:46.225Z,74036.86
2017-10-11T04:50:46.248Z,74038.29
2017-10-11T04:51:46.270Z,74043.06
2017-10-11T04:52:46.293Z,74037.77
2017-10-11T04:53:46.317Z,74038.64
2017-10-11T04:54:46.338Z,74032.51
2017-10-11T04:55:46.362Z,74032.42
2017-10-11T04:56:46.384Z,74034.34
2017-10-11T04:57:46.407Z,74038.13
2017-10-11T04:58:46.436Z,74036.27
2017-10-11T04:59:46.453Z,74030.69
2017-10-11T05:00:46.481Z,74034.02
2017-10-11T05:01:46.498Z,74035.24
2017-10-11T05:02:46.520Z,74031.49
2017-10-11T05:03:46.543Z,74033.37
2017-10-11T05:04:46.565Z,74038.12
2017-10-11T05:05:46.588Z,74032.88
2017-10-11T05:06:46.613Z,74035.75
2017-10-11T05:07:46.634Z,74036.08
2017-10-11T05:08:46.657Z,74037.57
2017-10-11T05:09:46.679Z,74041.55
2017-10-11T05:10:46.702Z,74034.45
2017-10-11T05:11:46.731Z,74040.99
2017-10-11T05:12:46.747Z,74039.45
2017-10-11T05:13:46.771Z,74036.54
2017-10-11T05:14:46.794Z,74042.91
2017-10-11T05:15:46.815Z,74037.18
2017-10-11T05:16:46.838Z,74036.86
2017-10-11T05:17:46.862Z,74036.63
2017-10-11T05:18:46.900Z,74038.22
2017-10-11T05:19:46.906Z,74046.01
2017-10-11T05:20:46.930Z,74052.30
2017-10-11T05:21:46.952Z,74046.16
2017-10-11T05:22:46.976Z,74044.60
2017-10-11T05:23:46.999Z,74042.91
2017-10-11T05:24:47.024Z,74028.95
2017-10-11T05:25:47.044Z,74043.27
2017-10-11T05:26:47.066Z,74052.13
2017-10-11T05:27:47.088Z,74047.10
2017-10-11T05:28:47.111Z,74047.01
2017-10-11T05:29:47.134Z,74039.86
2017-10-11T05:30:47.162Z,74052.73
2017-10-11T05:31:47.181Z,74051.73
2017-10-11T05:32:47.203Z,74035.36
2017-10-11T05:33:47.225Z,74051.74
2017-10-11T05:34:47.254Z,74044.87
2017-10-11T05:35:47.269Z,74046.11
2017-10-11T05:36:47.293Z,74048.50
2017-10-11T05:37:47.318Z,74043.96
2017-10-11T05:38:47.340Z,74032.13
2017-10-11T05:39:47.361Z,74047.23
2017-10-11T05:40:47.383Z,74048.06
2017-10-11T05:41:47.407Z,74042.88
2017-10-11T05:42:47.430Z,74037.16
2017-10-11T05:43:47.451Z,74053.73
2017-10-11T05:44:47.474Z,74052.63
2017-10-11T05:45:47.498Z,74051.74
2017-10-11T05:46:47.521Z,74048.07
2017-10-11T05:47:47.543Z,74046.54
2017-10-11T05:48:47.567Z,74041.91
2017-10-11T05:49:47.590Z,74049.73
2017-10-11T05:50:47.613Z,74047.02
2017-10-11T05:51:47.634Z,74054.34
2017-10-11T05:52:47.665Z,74048.38
2017-10-11T05:53:47.681Z,74058.31
2017-10-11T05:54:47.708Z,74047.17
2017-10-11T05:55:47.727Z,74052.06
2017-10-11T05:56:47.750Z,74052.18
2017-10-11T05:57:47.787Z,74055.40
2017-10-11T05:58:47.796Z,74063.18
2017-10-11T05:59:47.822Z,74063.77
2017-10-11T06:00:47.841Z,74069.09
2017-10-11T06:01:47.865Z,74061.22
2017-10-11T06:02:47.887Z,74054.38
2017-10-11T06:03:47.910Z,74060.27
2017-10-11T06:04:47.935Z,74059.00
2017-10-11T06:05:47.957Z,74056.02
2017-10-11T06:06:47.980Z,74048.82
2017-10-11T06:07:48.003Z,74063.75
2017-10-11T06:08:48.025Z,74059.38
2017-10-11T06:09:48.050Z,74066.51
2017-10-11T06:10:48.073Z,74069.20
2017-10-11T06:11:48.096Z,74064.88
2017-10-11T06:12:48.118Z,74060.91
2017-10-11T06:13:48.141Z,74063.74
2017-10-11T06:14:48.183Z,74062.72
2017-10-11T06:15:48.188Z,74064.97
2017-10-11T06:16:48.211Z,74062.76
2017-10-11T06:17:48.234Z,74065.77
2017-10-11T06:18:48.259Z,74064.93
2017-10-11T06:19:48.282Z,74058.91
2017-10-11T06:20:48.305Z,74071.73
2017-10-11T06:24:12.782Z,74071.91
2017-10-11T06:25:10.655Z,74074.91
2017-10-11T06:26:10.680Z,74068.47
2017-10-11T06:27:10.701Z,74075.23
2017-10-11T06:28:10.737Z,74069.05
2017-10-11T06:29:10.749Z,74083.54
2017-10-11T06:30:10.773Z,74063.76
2017-10-11T06:31:10.795Z,74069.13
2017-10-11T06:32:10.820Z,74086.19
2017-10-11T06:33:10.844Z,74073.94
2017-10-11T06:34:10.868Z,74086.94
2017-10-11T06:35:10.891Z,74077.80
2017-10-11T06:36:10.915Z,74073.13
2017-10-11T06:37:10.940Z,74086.70
2017-10-11T06:38:10.963Z,74091.74
2017-10-11T06:39:10.986Z,74084.84
2017-10-11T06:40:11.048Z,74088.95
2017-10-11T06:41:11.035Z,74080.69
2017-10-11T06:42:11.059Z,74092.28
2017-10-11T06:43:11.082Z,74072.92
2017-10-11T06:44:11.106Z,74081.73
2017-10-11T06:45:11.131Z,74081.20
2017-10-11T06:46:11.155Z,74091.06
2017-10-11T06:47:11.179Z,74086.96
2017-10-11T06:48:11.203Z,74091.13
2017-10-11T06:49:11.228Z,74080.06
2017-10-11T06:50:11.252Z,74090.86
2017-10-11T06:51:11.276Z,74089.88
2017-10-11T06:52:11.301Z,74083.69
2017-10-11T06:53:11.326Z,74086.29
2017-10-11T06:54:11.350Z,74076.94
2017-10-11T06:55:11.374Z,74091.30
2017-10-11T06:56:11.436Z,74082.05
2017-10-11T06:57:11.423Z,74089.13
2017-10-11T06:58:11.448Z,74084.96
2017-10-11T06:59:11.473Z,74095.28
2017-10-11T07:00:11.499Z,74097.63
2017-10-11T07:01:11.522Z,74093.67
2017-10-11T07:02:11.548Z,74093.41
2017-10-11T07:03:11.599Z,74087.77
2017-10-11T07:04:11.602Z,74090.42
2017-10-11T07:05:11.623Z,74087.55
2017-10-11T07:06:11.648Z,74096.98
2017-10-11T07:07:11.675Z,74094.95
2017-10-11T07:08:11.700Z,74095.17
2017-10-11T07:09:11.724Z,74103.95
2017-10-11T07:10:11.751Z,74094.63
2017-10-11T07:11:11.779Z,74109.06
2017-10-11T07:12:11.800Z,74103.59
2017-10-11T07:13:11.830Z,74100.42
2017-10-11T07:14:11.852Z,74100.76
2017-10-11T07:15:11.879Z,74100.38
2017-10-11T07:16:11.903Z,74098.06
2017-10-11T07:17:11.930Z,74104.45
2017-10-11T07:18:11.963Z,74097.54
2017-10-11T07:19:11.982Z,74092.43
2017-10-11T07:20:12.008Z,74104.23
2017-10-11T07:21:12.037Z,74090.76
2017-10-11T07:22:12.061Z,74102.93
2017-10-11T07:23:12.086Z,74108.63
2017-10-11T07:24:12.113Z,74114.51
2017-10-11T07:25:12.139Z,74106.13
2017-10-11T07:26:12.166Z,74100.16
2017-10-11T07:27:12.192Z,74104.87
2017-10-11T07:28:12.219Z,74106.56
2017-10-11T07:29:12.264Z,74113.05
2017-10-11T07:30:12.274Z,74114.83
2017-10-11T07:31:12.300Z,74111.87
2017-10-11T07:32:12.327Z,74100.81
2017-10-11T07:33:12.353Z,74112.35
2017-10-11T07:34:12.381Z,74105.89
2017-10-11T07:35:12.406Z,74108.27
2017-10-11T07:36:12.435Z,74105.66
2017-10-11T07:37:12.462Z,74109.37
2017-10-11T07:38:12.491Z,74105.67
2017-10-11T07:39:12.516Z,74107.73
2017-10-11T07:40:12.548Z,74116.92
2017-10-11T07:41:12.577Z,74117.73
2017-10-11T07:42:12.599Z,74125.52
2017-10-11T07:43:12.627Z,74121.52
2017-10-11T07:44:12.654Z,74123.46
2017-10-11T07:45:12.683Z,74120.15
2017-10-11T07:46:12.714Z,74123.90
2017-10-11T07:47:12.737Z,74134.34
2017-10-11T07:48:12.765Z,74126.57
2017-10-11T07:49:12.793Z,74134.63
2017-10-11T07:50:12.893Z,74128.16
2017-10-11T07:51:12.848Z,74133.40
2017-10-11T07:52:12.877Z,74137.38
2017-10-11T07:53:12.905Z,74136.14
2017-10-11T07:54:12.931Z,74133.09
2017-10-11T07:55:12.960Z,74117.77
2017-10-11T07:56:12.986Z,74114.23
2017-10-11T07:57:13.015Z,74136.21
2017-10-11T07:58:13.048Z,74141.99
2017-10-11T07:59:13.075Z,74144.35
2017-10-11T08:00:13.099Z,74133.03
2017-10-11T08:01:13.127Z,74141.52
2017-10-11T08:02:13.160Z,74137.70
2017-10-11T08:03:13.182Z,74133.24
2017-10-11T08:04:13.232Z,74130.66
2017-10-11T08:05:13.239Z,74145.84
2017-10-11T08:06:13.267Z,74135.82
2017-10-11T08:07:13.296Z,74130.41
2017-10-11T08:08:13.344Z,74131.30
2017-10-11T08:09:13.352Z,74142.50
2017-10-11T08:10:13.415Z,74136.13
2017-10-11T08:11:13.425Z,74121.45
2017-10-11T08:12:13.436Z,74127.57
2017-10-11T08:13:13.465Z,74131.35
2017-10-11T08:14:13.493Z,74124.59
2017-10-11T08:15:13.521Z,74135.70
2017-10-11T08:16:13.549Z,74137.02
2017-10-11T08:17:13.578Z,74126.64
2017-10-11T08:18:13.607Z,74130.41
2017-10-11T08:19:13.634Z,74138.88
2017-10-11T08:20:13.662Z,74135.63
2017-10-11T08:21:13.692Z,74137.23
2017-10-11T08:22:13.720Z,74127.34
2017-10-11T08:23:13.748Z,74135.24
2017-10-11T08:24:13.778Z,74135.76
2017-10-11T08:25:13.806Z,74132.80
2017-10-11T08:26:13.835Z,74133.10
2017-10-11T08:27:13.863Z,74132.40
2017-10-11T08:28:13.952Z,74137.93
2017-10-11T08:29:13.960Z,74142.56
2017-10-11T08:30:13.951Z,74135.74
2017-10-11T08:31:13.978Z,74142.09
2017-10-11T08:32:14.008Z,74139.77
2017-10-11T08:33:14.037Z,74143.21
2017-10-11T08:34:14.067Z,74138.52
2017-10-11T08:35:14.094Z,74139.75
2017-10-11T08:36:14.125Z,74141.05
2017-10-11T08:37:14.155Z,74122.53
2017-10-11T08:38:14.190Z,74148.40
2017-10-11T08:39:14.214Z,74144.30
2017-10-11T08:40:14.241Z,74140.05
2017-10-11T08:41:14.271Z,74146.98
2017-10-11T08:42:14.301Z,74147.30
2017-10-11T08:43:14.329Z,74147.00
2017-10-11T08:44:14.358Z,74145.92
2017-10-11T08:45:14.388Z,74139.61
2017-10-11T08:46:14.426Z,74148.95
2017-10-11T08:47:14.447Z,74145.29
2017-10-11T08:48:14.477Z,74153.32
2017-10-11T08:49:14.506Z,74142.20
2017-10-11T08:50:14.536Z,74150.51
2017-10-11T08:51:14.564Z,74149.80
2017-10-11T08:52:14.597Z,74149.78
2017-10-11T08:53:14.629Z,74146.89
2017-10-11T08:54:14.654Z,74159.41
2017-10-11T08:55:14.684Z,74154.20
2017-10-11T08:56:14.714Z,74145.41
2017-10-11T08:57:14.744Z,74149.83
2017-10-11T08:58:14.788Z,74145.89
2017-10-11T08:59:14.803Z,74153.63
2017-10-11T09:00:14.834Z,74153.36
2017-10-11T09:01:14.864Z,74141.42
2017-10-11T09:02:14.894Z,74142.76
2017-10-11T09:03:14.924Z,74153.68
2017-10-11T09:04:14.954Z,74155.25
2017-10-11T09:05:14.985Z,74153.31
2017-10-11T09:06:15.015Z,74154.79
2017-10-11T09:07:15.044Z,74153.43
2017-10-11T09:08:15.073Z,74147.57
2017-10-11T09:09:15.105Z,74162.66
2017-10-11T09:10:15.135Z,74155.06
2017-10-11T09:11:15.164Z,74152.98
2017-10-11T09:12:15.195Z,74159.09
2017-10-11T09:13:15.226Z,74152.43
2017-10-11T09:14:15.256Z,74150.95
2017-10-11T09:15:15.285Z,74151.70
2017-10-11T09:16:15.316Z,74157.45
2017-10-11T09:17:15.347Z,74154.55
2017-10-11T09:18:15.378Z,74148.80
2017-10-11T09:19:15.407Z,74151.95
2017-10-11T09:20:15.437Z,74147.23
2017-10-11T09:21:15.466Z,74152.17
2017-10-11T09:22:15.497Z,74152.02
2017-10-11T09:23:15.527Z,74151.92
2017-10-11T09:24:15.556Z,74157.15
2017-10-11T09:25:15.594Z,74150.91
2017-10-11T09:26:15.617Z,74152.59
2017-10-11T09:27:15.648Z,74159.98
2017-10-11T09:28:15.676Z,74160.45
2017-10-11T09:29:15.707Z,74147.79
2017-10-11T09:30:15.737Z,74151.15
2017-10-11T09:31:15.769Z,74151.19
2017-10-11T09:32:15.796Z,74158.55
2017-10-11T09:33:15.826Z,74161.45
2017-10-11T09:34:15.857Z,74150.79
2017-10-11T09:35:15.887Z,74145.32
2017-10-11T09:36:15.917Z,74144.93
2017-10-11T09:37:15.947Z,74159.00
2017-10-11T09:38:15.977Z,74161.89
2017-10-11T09:39:16.008Z,74168.54
2017-10-11T09:40:16.038Z,74163.36
2017-10-11T09:41:16.068Z,74168.10
2017-10-11T09:42:16.098Z,74156.89
2017-10-11T09:43:16.129Z,74164.77
2017-10-11T09:44:16.159Z,74169.42
2017-10-11T09:45:16.189Z,74176.34
2017-10-11T09:46:16.221Z,74168.21
2017-10-11T09:47:16.292Z,74158.80
2017-10-11T09:48:16.280Z,74170.07
2017-10-11T09:49:16.311Z,74173.85
2017-10-11T09:50:16.341Z,74170.65
2017-10-11T09:51:16.370Z,74168.48
2017-10-11T09:52:16.401Z,74170.50
2017-10-11T09:53:16.433Z,74167.55
2017-10-11T09:54:16.462Z,74175.62
2017-10-11T09:55:16.493Z,74145.78
2017-10-11T09:56:16.521Z,74163.59
2017-10-11T09:57:16.553Z,74164.73
2017-10-11T09:58:16.584Z,74166.59
2017-10-11T09:59:16.613Z,74162.23
2017-10-11T10:00:16.644Z,74166.37
2017-10-11T10:01:16.674Z,74168.58
2017-10-11T10:02:16.705Z,74165.69
2017-10-11T10:03:16.735Z,74169.90
2017-10-11T10:04:16.765Z,74167.24
2017-10-11T10:05:16.797Z,74172.65
2017-10-11T10:06:16.827Z,74168.33
2017-10-11T10:07:16.856Z,74170.35
2017-10-11T10:08:16.887Z,74166.55
2017-10-11T10:09:16.918Z,74171.06
2017-10-11T10:10:16.949Z,74171.73
2017-10-11T10:11:16.978Z,74172.23
2017-10-11T10:12:17.008Z,74170.13
2017-10-11T10:13:17.039Z,74168.87
2017-10-11T10:14:17.070Z,74165.95
2017-10-11T10:15:17.099Z,74171.92
2017-10-11T10:16:17.129Z,74171.69
2017-10-11T10:17:17.160Z,74170.73
2017-10-11T10:18:17.192Z,74164.28
2017-10-11T10:19:17.222Z,74169.92
2017-10-11T10:20:17.253Z,74164.09
2017-10-11T10:21:17.284Z,74175.09
2017-10-11T10:22:17.315Z,74172.39
2017-10-11T10:23:17.346Z,74169.66
2017-10-11T10:24:17.377Z,74174.21
2017-10-11T10:25:17.411Z,74169.24
2017-10-11T10:26:17.441Z,74169.70
2017-10-11T10:27:17.471Z,74175.13
2017-10-11T10:28:17.503Z,74170.44
2017-10-11T10:29:17.536Z,74176.61
2017-10-11T10:30:17.567Z,74171.52
2017-10-11T10:31:17.598Z,74178.73
2017-10-11T10:32:17.629Z,74176.75
2017-10-11T10:33:17.661Z,74179.38
2017-10-11T10:34:17.693Z,74165.60
2017-10-11T10:35:17.724Z,74179.53
2017-10-11T10:36:17.757Z,74172.32
2017-10-11T10:37:17.788Z,74176.05
2017-10-11T10:38:17.821Z,74175.51
2017-10-11T10:39:17.851Z,74171.17
2017-10-11T10:40:17.884Z,74153.83
2017-10-11T10:41:17.916Z,74172.66
2017-10-11T10:42:17.948Z,74170.10
2017-10-11T10:43:17.979Z,74173.21
2017-10-11T10:44:18.013Z,74166.73
2017-10-11T10:45:18.045Z,74163.91
2017-10-11T10:46:18.077Z,74170.51
2017-10-11T10:47:18.108Z,74175.39
2017-10-11T10:48:18.140Z,74174.01
2017-10-11T10:49:18.174Z,74175.55
2017-10-11T10:50:18.208Z,74172.75
2017-10-11T10:51:18.238Z,74164.65
2017-10-11T10:52:18.271Z,74178.23
2017-10-11T10:53:18.304Z,74176.74
2017-10-11T10:54:18.337Z,74172.66
2017-10-11T10:55:18.369Z,74171.02
2017-10-11T10:58:59.650Z,74169.00
2017-10-11T10:59:59.683Z,74175.17
2017-10-11T11:00:59.719Z,74173.36
2017-10-11T11:01:59.749Z,74180.04
2017-10-11T11:02:59.782Z,74163.44
2017-10-11T11:03:59.816Z,74166.26
2017-10-11T11:04:59.849Z,74173.92
2017-10-11T11:05:59.882Z,74173.02
2017-10-11T11:06:59.916Z,74173.80
2017-10-11T11:07:59.950Z,74172.95
2017-10-11T11:08:59.984Z,74180.19
2017-10-11T11:10:00.017Z,74168.67
2017-10-11T11:11:00.052Z,74175.56
2017-10-11T11:12:00.085Z,74175.55
2017-10-11T11:13:00.119Z,74176.83
2017-10-11T11:14:00.152Z,74162.53
2017-10-11T11:15:00.198Z,74162.19
2017-10-11T11:16:00.221Z,74172.78
2017-10-11T11:17:00.255Z,74170.88
2017-10-11T11:18:00.298Z,74170.57
2017-10-11T11:19:00.323Z,74169.98
2017-10-11T11:20:00.357Z,74171.58
2017-10-11T11:21:00.391Z,74177.94
2017-10-11T11:22:00.424Z,74178.88
2017-10-11T11:23:00.459Z,74172.84
2017-10-11T11:24:00.492Z,74178.73
2017-10-11T11:25:00.527Z,74171.23
2017-10-11T11:26:00.561Z,74172.31
2017-10-11T11:27:00.595Z,74173.95
2017-10-11T11:28:00.631Z,74177.04
2017-10-11T11:29:00.665Z,74183.05
2017-10-11T11:30:00.703Z,74179.66
2017-10-11T11:31:00.733Z,74176.70
2017-10-11T11:32:00.769Z,74164.02
2017-10-11T11:33:00.803Z,74162.17
2017-10-11T11:34:00.837Z,74167.38
2017-10-11T11:35:00.882Z,74164.78
2017-10-11T11:36:00.907Z,74176.66
2017-10-11T11:37:00.942Z,74172.77
2017-10-11T11:38:00.978Z,74174.26
2017-10-11T11:39:01.016Z,74176.52
2017-10-11T11:40:01.046Z,74172.70
2017-10-11T11:41:01.079Z,74171.26
2017-10-11T11:42:01.115Z,74173.00
2017-10-11T11:43:01.147Z,74172.10
2017-10-11T11:44:01.183Z,74170.41
2017-10-11T11:45:01.218Z,74164.99
2017-10-11T11:46:01.252Z,74150.17
2017-10-11T11:47:01.287Z,74172.39
2017-10-11T11:48:01.320Z,74172.99
2017-10-11T11:49:01.356Z,74168.58
2017-10-11T11:50:01.389Z,74175.31